Portada
METAR-TAF:

METAR-TAF

Aeroports :

Aeroport Internacional d'Osaka

Osaka, Japó

latitud: 34-47N, longitud: 135-27E, altitud: 12 m

Observació

L'informe es va fer fa 51 minuts, a les 23:00 UTC
Vent 2 kt amb direcció variable
Temperatura 13°C
Humitat 82%
Pressió 1020 hPa
Visibilitat 10 km o més
Escasses núvols a una alçada de 4000 ft
Cel ennuvolat

METAR: RJOO 262300Z VRB02KT 9999 FEW040 BKN/// 13/10 Q1020 RMK 1CU040 A3013

Hora: 08:51 (23:51 UTC)

Pronòstic

L'informe es va fer fa 44 minuts, a les 23:07 UTC
Pronòstic vàlid del 27 a les 00 UTC al 28 a les 06 UTC
Vent 5 kt del Oest/Sud-Oest
Visibilitat 10 km o més
Escasses núvols a una alçada de 3500 ft
Evolucionant progressivament
l' 27 a les 21 UTC al 28 a les 00 UTC
Vent 4 kt del Sud/Sud-Oest

TAF: RJOO 262307Z 2700/2806 25005KT 9999 FEW035 BECMG 2721/2800 20004KT

Observacions i pronòstics meteorològics de més de 4000 aeroports (METAR i TAF).

Les estacions disponibles són els punts grocs i vermells al mapa.

Posi el ratolí al punt desitjat per veure el nom de l'estació.

Feu clic per veure les observacions i els pronòstics meteorològics.

Per canviar el mapa: feu clic els botons verds amb una creu de color negre per apropar; al botó verd amb un guió per allunyar la imatge; o en les fletxes verdes per a mapes adjacents.


METAR-TAF: